createdAt,value
2023-05-01T00:00:25.741Z,100.00
2023-05-01T00:03:33.679Z,100.00
2023-05-01T00:06:39.600Z,100.00
2023-05-01T00:09:45.196Z,100.00
2023-05-01T00:12:50.695Z,100.00
2023-05-01T00:15:56.626Z,100.00
2023-05-01T00:19:03.723Z,100.00
2023-05-01T00:22:09.228Z,100.00
2023-05-01T00:25:14.872Z,100.00
2023-05-01T00:28:20.648Z,100.00
2023-05-01T00:31:26.265Z,100.00
2023-05-01T00:34:32.054Z,100.00
2023-05-01T00:37:37.860Z,100.00
2023-05-01T00:40:44.589Z,98.60
2023-05-01T00:43:50.309Z,96.76
2023-05-01T00:46:56.908Z,94.05
2023-05-01T00:50:03.666Z,91.17
2023-05-01T00:53:08.979Z,90.13
2023-05-01T00:56:16.064Z,87.58
2023-05-01T00:59:22.348Z,87.60
2023-05-01T01:02:27.875Z,87.85
2023-05-01T01:05:38.587Z,86.52
2023-05-01T01:09:13.986Z,86.21
2023-05-01T01:12:27.797Z,87.01
2023-05-01T01:15:38.708Z,86.35
2023-05-01T01:19:01.170Z,87.19
2023-05-01T01:22:13.888Z,87.13
2023-05-01T01:25:57.433Z,87.46
2023-05-01T01:29:33.380Z,88.63
2023-05-01T01:33:24.241Z,89.08
2023-05-01T01:36:35.854Z,89.82
2023-05-01T01:39:46.479Z,90.07
2023-05-01T01:43:08.561Z,91.33
2023-05-01T01:46:18.192Z,90.83
2023-05-01T01:49:28.210Z,91.51
2023-05-01T01:52:35.690Z,91.91
2023-05-01T01:55:44.007Z,91.36
2023-05-01T01:58:52.503Z,91.54
2023-05-01T02:01:59.904Z,91.92
2023-05-01T02:05:12.168Z,92.15
2023-05-01T02:08:19.209Z,91.00
2023-05-01T02:11:26.212Z,91.70
2023-05-01T02:14:32.198Z,91.83
2023-05-01T02:17:40.128Z,91.53
2023-05-01T02:20:46.204Z,90.84
2023-05-01T02:23:52.041Z,90.46
2023-05-01T02:27:01.861Z,89.43
2023-05-01T02:30:08.552Z,88.93
2023-05-01T02:33:13.741Z,88.72
2023-05-01T02:36:19.461Z,88.47
2023-05-01T02:39:25.132Z,87.33
2023-05-01T02:42:33.358Z,86.96
2023-05-01T02:45:40.831Z,86.70
2023-05-01T02:48:48.520Z,87.49
2023-05-01T02:51:54.287Z,87.62
2023-05-01T02:55:00.046Z,88.17
2023-05-01T02:58:05.523Z,88.49
2023-05-01T03:01:11.761Z,87.78
2023-05-01T03:04:17.840Z,87.23
2023-05-01T03:07:23.476Z,87.06
2023-05-01T03:10:28.772Z,86.34
2023-05-01T03:13:35.351Z,87.32
2023-05-01T03:16:41.588Z,87.57
2023-05-01T03:19:47.112Z,87.68
2023-05-01T03:22:52.566Z,86.40
2023-05-01T03:25:57.958Z,86.39
2023-05-01T03:29:04.094Z,86.06
2023-05-01T03:32:09.979Z,86.60
2023-05-01T03:35:16.505Z,86.64
2023-05-01T03:38:23.277Z,87.39
2023-05-01T03:41:47.404Z,84.61
2023-05-01T03:45:03.698Z,83.25
2023-05-01T03:48:09.396Z,82.68
2023-05-01T03:51:17.434Z,80.74
2023-05-01T03:54:24.189Z,79.92
2023-05-01T03:57:37.861Z,79.14
2023-05-01T04:00:44.029Z,77.66
2023-05-01T04:03:49.698Z,77.31
2023-05-01T04:06:55.637Z,77.02
2023-05-01T04:10:01.280Z,75.26
2023-05-01T04:13:07.258Z,75.25
2023-05-01T04:16:14.519Z,74.79
2023-05-01T04:19:20.033Z,74.16
2023-05-01T04:22:30.970Z,73.36
2023-05-01T04:25:37.267Z,73.00
2023-05-01T04:28:49.355Z,71.62
2023-05-01T04:31:58.146Z,71.09
2023-05-01T04:35:04.971Z,70.08
2023-05-01T04:38:11.325Z,70.44
2023-05-01T04:41:18.606Z,69.82
2023-05-01T04:44:25.836Z,69.03
2023-05-01T04:47:31.854Z,67.80
2023-05-01T04:50:37.991Z,66.69
2023-05-01T04:53:43.308Z,65.10
2023-05-01T04:56:58.325Z,64.55
2023-05-01T05:00:04.464Z,63.68
2023-05-01T05:03:12.516Z,64.15
2023-05-01T05:06:18.259Z,64.90
2023-05-01T05:09:24.105Z,64.02
2023-05-01T05:12:29.355Z,64.39
2023-05-01T05:15:34.944Z,63.68
2023-05-01T05:18:41.043Z,63.66
2023-05-01T05:21:47.261Z,63.00
2023-05-01T05:25:00.515Z,62.57
2023-05-01T05:28:05.843Z,62.40
2023-05-01T05:31:11.578Z,62.91
2023-05-01T05:34:17.733Z,63.41
2023-05-01T05:37:24.508Z,63.97
2023-05-01T05:40:31.356Z,62.42
2023-05-01T05:43:37.548Z,62.62
2023-05-01T05:46:45.154Z,62.19
2023-05-01T05:49:55.788Z,61.30
2023-05-01T05:53:01.429Z,62.19
2023-05-01T05:56:07.266Z,62.29
2023-05-01T05:59:12.835Z,62.04
2023-05-01T06:02:19.128Z,62.13
2023-05-01T06:05:25.050Z,61.78
2023-05-01T06:08:31.027Z,62.11
2023-05-01T06:11:36.795Z,61.88
2023-05-01T06:14:41.977Z,61.30
2023-05-01T06:17:47.615Z,62.20
2023-05-01T06:20:53.466Z,61.90
2023-05-01T06:23:59.267Z,62.01
2023-05-01T06:27:08.579Z,61.80
2023-05-01T06:30:14.078Z,62.50
2023-05-01T06:33:20.830Z,63.13
2023-05-01T06:36:37.878Z,63.74
2023-05-01T06:39:43.342Z,63.82
2023-05-01T06:42:48.932Z,63.24
2023-05-01T06:45:54.384Z,62.48
2023-05-01T06:48:59.848Z,61.04
2023-05-01T06:52:05.758Z,61.91
2023-05-01T06:55:12.739Z,60.41
2023-05-01T06:58:24.080Z,60.30
2023-05-01T07:01:32.126Z,60.18
2023-05-01T07:04:38.160Z,60.34
2023-05-01T07:07:50.434Z,60.62
2023-05-01T07:11:03.849Z,59.02
2023-05-01T07:14:09.537Z,58.23
2023-05-01T07:17:14.953Z,58.74
2023-05-01T07:20:20.003Z,59.16
2023-05-01T07:23:25.825Z,59.40
2023-05-01T07:26:31.080Z,59.66
2023-05-01T07:29:39.274Z,59.27
2023-05-01T07:32:45.422Z,58.69
2023-05-01T07:35:50.748Z,59.60
2023-05-01T07:38:58.058Z,58.87
2023-05-01T07:42:04.141Z,58.83
2023-05-01T07:45:10.121Z,57.97
2023-05-01T07:48:15.645Z,57.79
2023-05-01T07:51:21.487Z,57.68
2023-05-01T07:54:27.124Z,57.22
2023-05-01T07:57:35.829Z,58.33
2023-05-01T08:00:41.560Z,57.90
2023-05-01T08:03:49.396Z,56.91
2023-05-01T08:06:56.488Z,55.33
2023-05-01T08:10:02.592Z,56.06
2023-05-01T08:13:08.162Z,56.06
2023-05-01T08:16:13.521Z,56.87
2023-05-01T08:19:18.544Z,52.67
2023-05-01T08:22:24.339Z,53.17
2023-05-01T08:25:31.834Z,53.26
2023-05-01T08:28:37.986Z,52.62
2023-05-01T08:31:44.135Z,51.77
2023-05-01T08:34:50.005Z,51.79
2023-05-01T08:37:55.617Z,50.64
2023-05-01T08:41:03.808Z,50.56
2023-05-01T08:44:11.060Z,50.17
2023-05-01T08:47:18.424Z,49.89
2023-05-01T08:50:25.290Z,49.93
2023-05-01T08:53:33.670Z,50.29
2023-05-01T08:56:39.720Z,50.83
2023-05-01T08:59:47.294Z,51.48
2023-05-01T09:02:52.931Z,50.30
2023-05-01T09:06:00.239Z,50.08
2023-05-01T09:09:05.927Z,49.51
2023-05-01T09:12:26.402Z,50.89
2023-05-01T09:15:33.045Z,50.22
2023-05-01T09:18:41.273Z,50.43
2023-05-01T09:21:46.775Z,50.60
2023-05-01T09:24:52.065Z,50.76
2023-05-01T09:27:57.474Z,51.30
2023-05-01T09:31:21.739Z,50.96
2023-05-01T09:34:27.129Z,50.22
2023-05-01T09:37:34.185Z,49.49
2023-05-01T09:40:39.644Z,50.20
2023-05-01T09:43:53.470Z,49.66
2023-05-01T09:46:59.010Z,49.49
2023-05-01T09:50:04.823Z,49.57
2023-05-01T09:53:11.579Z,49.46
2023-05-01T09:56:18.339Z,50.12
2023-05-01T09:59:24.237Z,49.97
2023-05-01T10:02:32.700Z,49.26
2023-05-01T10:05:44.793Z,49.84
2023-05-01T10:08:51.207Z,49.21
2023-05-01T10:11:57.962Z,49.91
2023-05-01T10:15:17.382Z,49.60
2023-05-01T10:18:31.102Z,49.33
2023-05-01T10:21:37.275Z,49.52
2023-05-01T10:24:46.412Z,50.78
2023-05-01T10:27:53.356Z,51.44
2023-05-01T10:30:59.356Z,51.68
2023-05-01T10:34:05.008Z,50.59
2023-05-01T10:37:15.040Z,49.89
2023-05-01T10:40:48.297Z,50.02
2023-05-01T10:44:20.557Z,50.19
2023-05-01T10:47:27.926Z,50.65
2023-05-01T10:50:35.016Z,50.97
2023-05-01T10:53:43.690Z,51.41
2023-05-01T10:56:49.460Z,50.97
2023-05-01T11:00:02.397Z,51.24
2023-05-01T11:03:22.849Z,49.99
2023-05-01T11:06:28.650Z,50.15
2023-05-01T11:09:39.884Z,50.28
2023-05-01T11:12:52.736Z,50.62
2023-05-01T11:15:57.883Z,51.17
2023-05-01T11:19:03.750Z,50.99
2023-05-01T11:22:13.824Z,51.36
2023-05-01T11:25:22.893Z,51.05
2023-05-01T11:28:31.323Z,51.95
2023-05-01T11:31:37.501Z,52.15
2023-05-01T11:34:43.102Z,52.37
2023-05-01T11:37:49.147Z,51.23
2023-05-01T11:40:57.749Z,51.25
2023-05-01T11:44:03.138Z,51.25
2023-05-01T11:47:09.430Z,51.01
2023-05-01T11:50:14.990Z,51.07
2023-05-01T11:53:21.048Z,52.15
2023-05-01T11:56:27.680Z,54.54
2023-05-01T11:59:33.646Z,54.84
2023-05-01T12:02:39.703Z,53.12
2023-05-01T12:05:45.802Z,52.58
2023-05-01T12:08:53.425Z,52.87
2023-05-01T12:12:01.239Z,53.33
2023-05-01T12:15:07.534Z,52.73
2023-05-01T12:18:14.456Z,52.20
2023-05-01T12:21:20.134Z,51.12
2023-05-01T12:24:25.690Z,50.32
2023-05-01T12:27:32.237Z,49.80
2023-05-01T12:30:38.615Z,49.03
2023-05-01T12:33:53.723Z,49.00
2023-05-01T12:36:59.435Z,49.17
2023-05-01T12:40:05.672Z,48.48
2023-05-01T12:43:10.918Z,47.51
2023-05-01T12:46:17.110Z,44.99
2023-05-01T12:49:24.263Z,47.42
2023-05-01T12:52:29.825Z,47.61
2023-05-01T12:55:57.086Z,47.77
2023-05-01T12:59:02.196Z,48.33
2023-05-01T13:02:11.102Z,48.68
2023-05-01T13:05:16.639Z,48.33
2023-05-01T13:08:38.723Z,47.43
2023-05-01T13:11:59.764Z,47.43
2023-05-01T13:15:05.948Z,48.49
2023-05-01T13:18:11.758Z,49.40
2023-05-01T13:21:23.231Z,50.42
2023-05-01T13:24:47.250Z,51.50
2023-05-01T13:27:53.523Z,49.95
2023-05-01T13:30:59.352Z,50.25
2023-05-01T13:34:04.953Z,47.80
2023-05-01T13:37:14.708Z,47.25
2023-05-01T13:40:21.566Z,48.12
2023-05-01T13:43:27.190Z,48.69
2023-05-01T13:46:33.072Z,48.53
2023-05-01T13:49:42.150Z,49.33
2023-05-01T13:52:47.925Z,49.65
2023-05-01T13:55:53.434Z,51.23
2023-05-01T13:59:01.535Z,52.38
2023-05-01T14:02:19.691Z,53.98
2023-05-01T14:05:29.481Z,52.70
2023-05-01T14:08:35.068Z,51.38
2023-05-01T14:11:48.827Z,51.35
2023-05-01T14:14:54.075Z,51.40
2023-05-01T14:18:07.853Z,52.14
2023-05-01T14:21:16.623Z,52.91
2023-05-01T14:24:22.648Z,53.39
2023-05-01T14:27:28.287Z,54.00
2023-05-01T14:30:38.799Z,52.38
2023-05-01T14:33:44.624Z,51.18
2023-05-01T14:36:50.751Z,50.35
2023-05-01T14:40:11.941Z,50.13
2023-05-01T14:43:20.662Z,50.99
2023-05-01T14:46:32.187Z,51.86
2023-05-01T14:49:38.102Z,53.20
2023-05-01T14:52:43.441Z,54.30
2023-05-01T14:55:51.676Z,53.92
2023-05-01T14:58:57.363Z,53.90
2023-05-01T15:02:02.869Z,53.88
2023-05-01T15:05:08.682Z,54.71
2023-05-01T15:08:13.627Z,54.37
2023-05-01T15:11:21.022Z,54.87
2023-05-01T15:14:27.177Z,56.09
2023-05-01T15:17:32.766Z,57.47
2023-05-01T15:20:38.502Z,60.51
2023-05-01T15:23:45.573Z,60.42
2023-05-01T15:26:51.129Z,62.50
2023-05-01T15:29:58.152Z,62.21
2023-05-01T15:33:04.443Z,64.21
2023-05-01T15:36:10.132Z,66.15
2023-05-01T15:39:15.610Z,65.02
2023-05-01T15:42:20.954Z,66.09
2023-05-01T15:45:26.700Z,65.47
2023-05-01T15:48:33.741Z,66.08
2023-05-01T15:51:39.403Z,66.79
2023-05-01T15:54:47.866Z,68.03
2023-05-01T15:57:53.163Z,66.94
2023-05-01T16:00:58.862Z,69.56
2023-05-01T16:04:05.123Z,73.34
2023-05-01T16:07:10.993Z,78.35
2023-05-01T16:10:17.146Z,82.18
2023-05-01T16:13:22.591Z,84.42
2023-05-01T16:16:29.076Z,87.57
2023-05-01T16:19:36.887Z,87.40
2023-05-01T16:22:46.035Z,88.40
2023-05-01T16:25:51.196Z,92.26
2023-05-01T16:29:00.579Z,96.62
2023-05-01T16:32:06.281Z,100.00
2023-05-01T16:35:18.655Z,100.00
2023-05-01T16:38:24.156Z,100.00
2023-05-01T16:41:29.627Z,100.00
2023-05-01T16:44:36.778Z,100.00
2023-05-01T16:47:42.284Z,100.00
2023-05-01T16:50:47.811Z,100.00
2023-05-01T16:53:53.042Z,100.00
2023-05-01T16:56:59.407Z,100.00
2023-05-01T17:00:05.755Z,100.00
2023-05-01T17:03:11.654Z,100.00
2023-05-01T17:06:17.513Z,100.00
2023-05-01T17:09:23.122Z,100.00
2023-05-01T17:12:33.739Z,100.00
2023-05-01T17:15:39.257Z,100.00
2023-05-01T17:18:44.466Z,100.00
2023-05-01T17:21:50.257Z,100.00
2023-05-01T17:24:55.819Z,100.00
2023-05-01T17:28:01.600Z,100.00
2023-05-01T17:31:07.153Z,100.00
2023-05-01T17:34:12.693Z,100.00
2023-05-01T17:37:18.216Z,100.00
2023-05-01T17:40:24.550Z,100.00
2023-05-01T17:43:30.034Z,100.00
2023-05-01T17:46:39.187Z,100.00
2023-05-01T17:49:44.846Z,100.00
2023-05-01T17:52:50.237Z,100.00
2023-05-01T17:55:56.624Z,100.00
2023-05-01T17:59:02.357Z,100.00
2023-05-01T18:02:08.309Z,100.00
2023-05-01T18:05:13.785Z,100.00
2023-05-01T18:08:19.471Z,100.00
2023-05-01T18:11:26.355Z,100.00
2023-05-01T18:14:32.308Z,100.00
2023-05-01T18:17:37.776Z,100.00
2023-05-01T18:20:43.172Z,100.00
2023-05-01T18:23:52.003Z,100.00
2023-05-01T18:26:57.884Z,100.00
2023-05-01T18:30:03.358Z,100.00
2023-05-01T18:33:09.416Z,100.00
2023-05-01T18:36:15.036Z,100.00
2023-05-01T18:39:24.963Z,100.00
2023-05-01T18:42:30.937Z,100.00
2023-05-01T18:45:36.689Z,100.00
2023-05-01T18:48:45.632Z,100.00
2023-05-01T18:51:52.276Z,100.00
2023-05-01T18:54:58.086Z,100.00
2023-05-01T18:58:03.910Z,100.00
2023-05-01T19:01:12.064Z,100.00
2023-05-01T19:04:19.522Z,100.00
2023-05-01T19:07:28.314Z,100.00
2023-05-01T19:10:35.949Z,100.00
2023-05-01T19:13:43.536Z,100.00
2023-05-01T19:16:50.075Z,100.00
2023-05-01T19:19:55.807Z,100.00
2023-05-01T19:23:01.353Z,100.00
2023-05-01T19:26:08.187Z,100.00
2023-05-01T19:29:15.576Z,100.00
2023-05-01T19:32:21.599Z,100.00
2023-05-01T19:35:27.185Z,100.00
2023-05-01T19:38:33.784Z,100.00
2023-05-01T19:41:39.689Z,100.00
2023-05-01T19:44:45.154Z,100.00
2023-05-01T19:47:50.951Z,100.00
2023-05-01T19:50:56.853Z,100.00
2023-05-01T19:54:04.729Z,100.00
2023-05-01T19:57:10.768Z,100.00
2023-05-01T20:00:17.249Z,100.00
2023-05-01T20:03:22.845Z,100.00
2023-05-01T20:06:28.549Z,100.00
2023-05-01T20:09:34.003Z,100.00
2023-05-01T20:12:39.538Z,100.00
2023-05-01T20:15:44.734Z,100.00
2023-05-01T20:18:50.050Z,100.00
2023-05-01T20:21:56.303Z,100.00
2023-05-01T20:25:01.728Z,100.00
2023-05-01T20:28:09.210Z,100.00
2023-05-01T20:31:15.061Z,100.00
2023-05-01T20:34:21.023Z,100.00
2023-05-01T20:37:27.103Z,100.00
2023-05-01T20:40:33.693Z,100.00
2023-05-01T20:43:39.651Z,100.00
2023-05-01T20:46:45.179Z,100.00
2023-05-01T20:49:50.958Z,100.00
2023-05-01T20:52:56.981Z,100.00
2023-05-01T20:56:02.939Z,100.00
2023-05-01T20:59:08.513Z,100.00
2023-05-01T21:02:17.709Z,100.00
2023-05-01T21:05:23.714Z,100.00
2023-05-01T21:08:29.803Z,100.00
2023-05-01T21:11:39.143Z,100.00
2023-05-01T21:14:44.566Z,100.00
2023-05-01T21:17:50.457Z,100.00
2023-05-01T21:20:56.314Z,100.00
2023-05-01T21:24:02.071Z,100.00
2023-05-01T21:27:08.225Z,100.00
2023-05-01T21:30:17.794Z,100.00
2023-05-01T21:33:23.390Z,100.00
2023-05-01T21:36:29.126Z,100.00
2023-05-01T21:39:34.485Z,100.00
2023-05-01T21:42:40.346Z,100.00
2023-05-01T21:45:45.733Z,100.00
2023-05-01T21:48:51.760Z,100.00
2023-05-01T21:52:02.511Z,100.00
2023-05-01T21:55:12.429Z,100.00
2023-05-01T21:58:18.058Z,100.00
2023-05-01T22:01:24.836Z,100.00
2023-05-01T22:04:31.870Z,100.00
2023-05-01T22:07:41.961Z,100.00
2023-05-01T22:10:49.367Z,100.00
2023-05-01T22:13:55.121Z,100.00
2023-05-01T22:17:00.690Z,100.00
2023-05-01T22:20:07.735Z,100.00
2023-05-01T22:23:14.672Z,100.00
2023-05-01T22:26:20.633Z,100.00
2023-05-01T22:29:26.238Z,100.00
2023-05-01T22:32:31.874Z,100.00
2023-05-01T22:35:37.198Z,100.00
2023-05-01T22:38:42.429Z,100.00
2023-05-01T22:41:47.667Z,100.00
2023-05-01T22:44:52.797Z,100.00
2023-05-01T22:47:58.277Z,100.00
2023-05-01T22:51:04.093Z,100.00
2023-05-01T22:54:09.528Z,100.00
2023-05-01T22:57:15.372Z,100.00
2023-05-01T23:00:22.410Z,100.00
2023-05-01T23:03:27.702Z,100.00
2023-05-01T23:06:33.372Z,100.00
2023-05-01T23:09:39.016Z,100.00
2023-05-01T23:12:46.213Z,100.00
2023-05-01T23:15:52.622Z,100.00
2023-05-01T23:18:58.397Z,100.00
2023-05-01T23:22:14.300Z,100.00
2023-05-01T23:25:25.285Z,100.00
2023-05-01T23:28:31.006Z,100.00
2023-05-01T23:31:36.629Z,100.00
2023-05-01T23:34:43.742Z,100.00
2023-05-01T23:37:49.557Z,100.00
2023-05-01T23:40:55.676Z,100.00
2023-05-01T23:44:01.299Z,100.00
2023-05-01T23:47:07.153Z,100.00
2023-05-01T23:50:13.239Z,100.00
2023-05-01T23:53:18.611Z,100.00
2023-05-01T23:56:24.413Z,100.00
2023-05-01T23:59:30.292Z,100.00
